Moosonee Airport
CYMO : now visible

Airfield :











YOU CAN JOIN US ON...

 
LOGIN :

Register | Disclaimer

   EN    FR    IT 

 









Legend :    VFR   Marginal VFR   IFR   Intensive IFR   Very Intensive IFR
Visi :
Ceiling :
>= 8 km
>= 3000ft
5 to 8 km
1000 to 3000 ft
1500m to 5 km
500 to 1000 ft
800 to 1500m
200 to 500 ft
< 800m
< 200 ft
Symbols :   Thunderstorms  Fog  Heavy snow  Heavy precipitations  Wind > 20 kt






- Airport Elevation : 30 ft
- IATA code : YMO


CYMO - Moosonee

CURRENT METAR :
  • 170300Z AUTO 24004KT 9SM M24/M27 A3013 RMK CLD MISG SLP207

EXPIRED METARs :
  • 170200Z AUTO 25007KT 9SM CLR M24/M27 A3013 RMK SLP205
  • 170100Z AUTO 26006KT 9SM M23/M26 A3011 RMK CLD MISG SLP200
  • 170000Z AUTO 26005KT 9SM CLR M21/M25 A3011 RMK SLP198

TAF TAF CYMO
Valid from the 17 at 00:00 until the 17 at 12:00 UTC


162339Z 1700/1712 27006KT P6SM SKC
BECMG 1706/1708 20005KT RMK FCST BASED ON AUTO OBS. NXT FCST BY 170600Z



MET'MAP, your aeronautical weather chart ! - Copyright ORBIFLY December 2007 - Disclaimer

ORBIFLY MET'MAP TEAM :

Programming & Development : Alexandra Zaïnal
Concept & original design : Baudouin d'Aumeries
Assistance for programming : Marc-Olivier Méhu
Technical & hardware support : Manuel Goepfert

Contact : metmap@orbifly.com




SOURCES & CREDITS :

   NOAA       Earth
Advisory